Time;durP1;ratioP1;P1;durP2;ratioP2;P2;SDS_P1;SDS_P2;PMS_P1;PMS_P2;Temp;Humidity;BMP_temperature;BMP_pressure;BME280_temperature;BME280_humidity;BME280_pressure;Samples;Min_cycle;Max_cycle;Signal;HPM_P1;HPM_P2
2023/11/30 00:00:41;;;;;;;13.75;8.32;;;;;;;-146.25;100.00;52615.56;2062051;28;40809;-81
2023/11/30 00:01:43;;;;;;;17.35;8.52;;;;;;;-146.25;100.00;52643.97;2061842;28;41587;-81
2023/11/30 00:02:44;;;;;;;20.00;9.38;;;;;;;-146.25;100.00;52648.00;2063072;28;42199;-81
2023/11/30 00:03:46;;;;;;;16.95;9.65;;;;;;;-146.25;100.00;52648.00;2063005;28;46350;-82
2023/11/30 00:04:50;;;;;;;15.95;9.18;;;;;;;-146.25;100.00;52633.81;2063178;28;40246;-81
2023/11/30 00:05:53;;;;;;;18.35;8.52;;;;;;;-146.25;100.00;52625.72;2063922;28;20039;-81
2023/11/30 00:06:54;;;;;;;16.60;9.63;;;;;;;-146.25;100.00;52641.94;2070654;28;40592;-81
2023/11/30 00:07:56;;;;;;;17.33;9.35;;;;;;;-146.25;100.00;52648.00;2070387;28;41661;-82
2023/11/30 00:08:58;;;;;;;16.20;9.68;;;;;;;-146.25;100.00;52668.28;2070268;28;41333;-82
2023/11/30 00:10:03;;;;;;;13.85;8.90;;;;;;;-146.25;100.00;52668.28;2070418;28;41035;-82
2023/11/30 00:11:06;;;;;;;18.63;9.77;;;;;;;-146.25;100.00;52670.31;2071788;28;20042;-82
2023/11/30 00:12:07;;;;;;;17.02;10.25;;;;;;;-146.25;100.00;52666.25;2071172;28;40274;-82
2023/11/30 00:13:09;;;;;;;16.98;9.50;;;;;;;-146.25;100.00;52631.78;2070304;28;42344;-82
2023/11/30 00:14:11;;;;;;;17.20;9.23;;;;;;;-146.25;100.00;52645.97;2063966;28;20039;-82
2023/11/30 00:15:13;;;;;;;17.13;10.13;;;;;;;-146.25;100.00;52623.69;2063062;28;41300;-80
2023/11/30 00:16:15;;;;;;;15.73;8.80;;;;;;;-146.25;100.00;52645.97;2063053;28;39570;-81
2023/11/30 00:17:16;;;;;;;17.80;10.18;;;;;;;-146.25;100.00;52684.50;2063669;28;20042;-82
2023/11/30 00:18:25;;;;;;;17.02;9.85;;;;;;;-146.25;100.00;52662.22;2063502;28;20043;-81
2023/11/30 00:19:27;;;;;;;16.10;9.50;;;;;;;-146.25;100.00;52643.97;2070595;28;39949;-82
2023/11/30 00:20:29;;;;;;;16.90;8.80;;;;;;;-146.25;100.00;52635.84;2070494;28;40829;-82
2023/11/30 00:21:31;;;;;;;19.25;9.75;;;;;;;-146.25;100.00;52648.00;2062855;28;44725;-82
2023/11/30 00:22:32;;;;;;;19.27;10.93;;;;;;;-146.25;100.00;52627.75;2063142;28;41099;-81
2023/11/30 00:23:34;;;;;;;21.35;10.50;;;;;;;-146.25;100.00;52645.97;2062549;28;42955;-75
2023/11/30 00:24:36;;;;;;;16.55;8.82;;;;;;;-146.25;100.00;52623.69;2062466;28;42449;-81
2023/11/30 00:25:38;;;;;;;17.25;9.80;;;;;;;-146.25;100.00;52662.22;2062821;28;41727;-81
2023/11/30 00:26:40;;;;;;;18.17;8.13;;;;;;;-146.25;100.00;52660.19;2071072;28;24544;-83
2023/11/30 00:27:42;;;;;;;20.35;9.27;;;;;;;-146.25;100.00;52688.56;2070412;28;45452;-81
2023/11/30 00:28:43;;;;;;;19.00;9.60;;;;;;;-146.25;100.00;52633.81;2062325;28;42011;-82
2023/11/30 00:29:45;;;;;;;20.48;9.43;;;;;;;-146.25;100.00;52623.69;2054285;28;37046;-82
2023/11/30 00:30:47;;;;;;;18.60;9.02;;;;;;;-146.25;100.00;52666.25;2062459;28;36114;-81
2023/11/30 00:31:48;;;;;;;18.45;9.45;;;;;;;-146.25;100.00;52615.56;2070927;28;34617;-81
2023/11/30 00:32:51;;;;;;;20.60;9.45;;;;;;;-146.25;100.00;52664.22;2063429;28;20035;-81
2023/11/30 00:33:53;;;;;;;17.15;9.43;;;;;;;-146.25;100.00;52633.81;2062938;28;42821;-80
2023/11/30 00:34:55;;;;;;;16.42;8.93;;;;;;;-146.25;100.00;52641.94;2071240;28;20038;-82
2023/11/30 00:35:56;;;;;;;15.82;8.52;;;;;;;-146.25;100.00;52625.72;2070658;28;31112;-82
2023/11/30 00:37:02;;;;;;;16.48;8.93;;;;;;;-146.25;100.00;52617.59;2063211;28;34996;-82
2023/11/30 00:38:04;;;;;;;17.67;9.90;;;;;;;-146.25;100.00;52645.97;2070843;28;29955;-82
2023/11/30 00:39:08;;;;;;;16.65;8.88;;;;;;;-146.25;100.00;52639.91;2070822;28;20046;-82
2023/11/30 00:40:10;;;;;;;15.25;8.23;;;;;;;-146.25;100.00;52615.56;2054174;28;36546;-82
2023/11/30 00:41:16;;;;;;;15.85;8.27;;;;;;;-146.25;100.00;52623.69;2054556;28;31757;-81
2023/11/30 00:42:18;;;;;;;14.48;8.05;;;;;;;-146.25;100.00;52658.16;2054297;28;40009;-81
2023/11/30 00:43:20;;;;;;;14.80;8.35;;;;;;;-146.25;100.00;52639.91;2054989;28;32343;-81
2023/11/30 00:44:22;;;;;;;15.98;8.45;;;;;;;-146.25;100.00;52696.69;2063661;28;20039;-82
2023/11/30 00:45:24;;;;;;;18.92;9.00;;;;;;;-146.25;100.00;52694.66;2063253;28;36227;-82
2023/11/30 00:46:27;;;;;;;16.67;9.65;;;;;;;-146.25;100.00;52684.50;2062976;28;38456;-82
2023/11/30 00:47:29;;;;;;;17.50;9.60;;;;;;;-146.25;100.00;52609.50;2062994;28;20050;-82
2023/11/30 00:48:31;;;;;;;14.93;8.77;;;;;;;-146.25;100.00;52627.75;2062318;28;36114;-82
2023/11/30 00:49:33;;;;;;;20.05;10.05;;;;;;;-146.25;100.00;52633.81;2063280;28;36240;-81
2023/11/30 00:50:35;;;;;;;17.40;9.30;;;;;;;-146.25;100.00;52648.00;2070489;28;30016;-82
2023/11/30 00:51:36;;;;;;;15.50;8.35;;;;;;;-146.25;100.00;52635.84;2062471;28;34392;-81
2023/11/30 00:52:38;;;;;;;16.00;9.48;;;;;;;-146.25;100.00;52652.06;2062427;28;31243;-82
2023/11/30 00:53:42;;;;;;;17.13;9.90;;;;;;;-146.25;100.00;52678.44;2062258;28;41732;-81
2023/11/30 00:54:44;;;;;;;16.55;9.18;;;;;;;-146.25;100.00;52676.41;2062630;28;26965;-81
2023/11/30 00:55:46;;;;;;;15.48;8.85;;;;;;;-146.25;100.00;52641.94;2062619;28;36886;-82
2023/11/30 00:56:48;;;;;;;19.15;10.05;;;;;;;-146.25;100.00;52627.75;2063120;28;20051;-81
2023/11/30 00:57:49;;;;;;;16.67;9.07;;;;;;;-146.25;100.00;52656.13;2062696;28;34227;-82
2023/11/30 00:58:52;;;;;;;14.88;8.52;;;;;;;-146.25;100.00;52652.06;2063027;28;35438;-81
2023/11/30 00:59:53;;;;;;;16.63;9.10;;;;;;;-146.25;100.00;52654.09;2063913;28;20050;-81
2023/11/30 01:00:56;;;;;;;15.38;8.52;;;;;;;-146.25;100.00;52635.84;2061836;28;34415;-81
2023/11/30 01:01:58;;;;;;;16.65;9.07;;;;;;;-146.25;100.00;52625.72;2062299;28;30980;-82
2023/11/30 01:02:59;;;;;;;19.73;10.45;;;;;;;-146.25;100.00;52635.84;2069964;28;31181;-82
2023/11/30 01:04:01;;;;;;;19.02;10.50;;;;;;;-146.25;100.00;52678.44;2070700;28;37484;-82
2023/11/30 01:05:03;;;;;;;20.85;10.48;;;;;;;-146.25;100.00;52674.38;2070018;28;43834;-82
2023/11/30 01:06:05;;;;;;;22.15;10.38;;;;;;;-146.25;100.00;52637.88;2062263;28;37845;-82
2023/11/30 01:07:07;;;;;;;17.00;9.75;;;;;;;-146.25;100.00;52656.13;2062174;28;40005;-82
2023/11/30 01:08:12;;;;;;;20.42;10.77;;;;;;;-146.25;100.00;52664.22;2070384;28;37731;-82
2023/11/30 01:09:14;;;;;;;18.02;9.35;;;;;;;-146.25;100.00;52654.09;2070033;28;20035;-82
2023/11/30 01:10:16;;;;;;;18.05;10.27;;;;;;;-146.25;100.00;52648.00;2070308;28;34581;-81
2023/11/30 01:11:17;;;;;;;17.13;9.20;;;;;;;-146.25;100.00;52674.38;2062314;28;24589;-81
2023/11/30 01:12:19;;;;;;;20.50;9.77;;;;;;;-146.25;100.00;52678.44;2062711;28;34425;-82
2023/11/30 01:13:21;;;;;;;20.42;10.48;;;;;;;-146.25;100.00;52641.94;2071142;28;37919;-82
2023/11/30 01:14:23;;;;;;;17.00;9.52;;;;;;;-146.25;100.00;52633.81;2065312;28;20030;-82
2023/11/30 01:15:25;;;;;;;20.08;9.60;;;;;;;-146.25;100.00;52625.72;2072017;28;20165;-82
2023/11/30 01:16:27;;;;;;;20.25;10.48;;;;;;;-146.25;100.00;52635.84;2071797;28;37318;-82
2023/11/30 01:17:31;;;;;;;19.60;10.13;;;;;;;-146.25;100.00;52684.50;2072062;28;21441;-82
2023/11/30 01:18:33;;;;;;;21.00;10.65;;;;;;;-146.25;100.00;52662.22;2072069;28;38050;-81
2023/11/30 01:19:35;;;;;;;18.60;10.25;;;;;;;-146.25;100.00;52652.06;2071436;28;36009;-82
2023/11/30 01:20:36;;;;;;;20.45;10.20;;;;;;;-146.25;100.00;52627.75;2072246;28;20042;-82
2023/11/30 01:21:38;;;;;;;19.42;10.30;;;;;;;-146.25;100.00;52666.25;2063889;28;40948;-83
2023/11/30 01:22:40;;;;;;;23.85;10.85;;;;;;;-146.25;100.00;52674.38;2072324;28;20078;-82
2023/11/30 01:23:41;;;;;;;21.63;10.68;;;;;;;-146.25;100.00;52599.34;2071940;28;20145;-77
2023/11/30 01:24:43;;;;;;;21.98;10.57;;;;;;;-146.25;100.00;52585.16;2064502;28;33244;-82
2023/11/30 01:25:45;;;;;;;20.73;11.52;;;;;;;-146.25;100.00;52641.94;2064011;28;31676;-82
2023/11/30 01:26:48;;;;;;;23.92;11.23;;;;;;;-146.25;100.00;52648.00;2064710;28;20784;-81
2023/11/30 01:27:52;;;;;;;23.20;10.82;;;;;;;-146.25;100.00;52639.91;2064390;28;32433;-82
2023/11/30 01:28:54;;;;;;;21.55;11.23;;;;;;;-146.25;100.00;52660.19;2063598;28;35227;-81
2023/11/30 01:29:55;;;;;;;25.95;11.48;;;;;;;-146.25;100.00;52631.78;2063822;28;20042;-82
2023/11/30 01:30:59;;;;;;;25.40;11.35;;;;;;;-146.25;100.00;52637.88;2064862;28;36727;-82
2023/11/30 01:32:02;;;;;;;24.70;11.75;;;;;;;-146.25;100.00;52674.38;2070726;28;38112;-82
2023/11/30 01:33:06;;;;;;;30.15;12.63;;;;;;;-146.25;100.00;52674.38;2072223;28;20045;-81
2023/11/30 01:34:09;;;;;;;21.55;10.73;;;;;;;-146.25;100.00;52625.72;2071648;28;32154;-82
2023/11/30 01:35:10;;;;;;;26.63;11.43;;;;;;;-146.25;100.00;52648.00;2063441;28;36147;-81
2023/11/30 01:36:13;;;;;;;28.13;12.73;;;;;;;-146.25;100.00;52678.44;2063843;28;20076;-79
2023/11/30 01:37:15;;;;;;;25.88;11.27;;;;;;;-146.25;100.00;52704.78;2063923;28;20051;-81
2023/11/30 01:38:17;;;;;;;27.27;11.18;;;;;;;-146.25;100.00;52643.97;2063678;28;33308;-81
2023/11/30 01:39:19;;;;;;;24.35;11.52;;;;;;;-146.25;100.00;52678.44;2064785;28;20039;-81
2023/11/30 01:40:21;;;;;;;26.23;12.38;;;;;;;-146.25;100.00;52641.94;2063954;28;41001;-81
2023/11/30 01:41:23;;;;;;;23.67;11.00;;;;;;;-146.25;100.00;52652.06;2072763;28;20183;-81
2023/11/30 01:42:25;;;;;;;20.50;9.68;;;;;;;-146.25;100.00;52619.63;2062964;28;33997;-82
2023/11/30 01:43:27;;;;;;;23.67;10.80;;;;;;;-146.25;100.00;52674.38;2064138;28;20051;-82
2023/11/30 01:44:29;;;;;;;24.92;11.32;;;;;;;-146.25;100.00;52692.63;2063448;28;34044;-81
2023/11/30 01:45:31;;;;;;;23.83;10.52;;;;;;;-146.25;100.00;52648.00;2071989;28;20061;-81
2023/11/30 01:46:36;;;;;;;20.23;9.98;;;;;;;-146.25;100.00;52670.31;2072167;28;20034;-80
2023/11/30 01:47:38;;;;;;;24.83;10.85;;;;;;;-146.25;100.00;52668.28;2063764;28;30613;-81
2023/11/30 01:48:44;;;;;;;22.80;11.25;;;;;;;-146.25;100.00;52615.56;2068736;28;38315;-82
2023/11/30 01:49:45;;;;;;;22.70;11.15;;;;;;;-146.25;100.00;52631.78;2071649;28;37465;-81
2023/11/30 01:50:48;;;;;;;22.88;10.45;;;;;;;-146.25;100.00;52648.00;2071962;28;21010;-82
2023/11/30 01:51:49;;;;;;;22.90;10.55;;;;;;;-146.25;100.00;52654.09;2071820;28;35477;-82
2023/11/30 01:52:51;;;;;;;21.88;10.35;;;;;;;-146.25;100.00;52643.97;2070979;28;42109;-82
2023/11/30 01:53:55;;;;;;;22.95;11.00;;;;;;;-146.25;100.00;52656.13;2063936;28;22424;-81
2023/11/30 01:55:00;;;;;;;22.85;10.80;;;;;;;-146.25;100.00;52666.25;2071249;28;34534;-81
2023/11/30 01:56:03;;;;;;;19.55;10.35;;;;;;;-146.25;100.00;52668.28;2071030;28;38647;-81
2023/11/30 01:57:05;;;;;;;18.90;9.52;;;;;;;-146.25;100.00;52674.38;2072583;28;20834;-82
2023/11/30 01:58:09;;;;;;;22.50;9.75;;;;;;;-146.25;100.00;52660.19;2072071;28;20050;-81
2023/11/30 01:59:12;;;;;;;29.23;10.95;;;;;;;-146.25;100.00;52609.50;2056347;28;20047;-79
2023/11/30 02:00:19;;;;;;;22.40;10.88;;;;;;;-146.25;100.00;52672.34;2056294;28;20145;-81
2023/11/30 02:01:26;;;;;;;23.38;10.85;;;;;;;-146.25;100.00;52639.91;2065490;28;20854;-81
2023/11/30 02:02:28;;;;;;;20.67;9.65;;;;;;;-146.25;100.00;52641.94;2072261;28;20047;-81
2023/11/30 02:03:32;;;;;;;21.88;9.75;;;;;;;-146.25;100.00;52682.47;2072876;28;20911;-81
2023/11/30 02:04:37;;;;;;;20.27;9.63;;;;;;;-146.25;100.00;52637.88;2071983;28;20089;-81
2023/11/30 02:05:42;;;;;;;17.33;9.13;;;;;;;-146.25;100.00;52658.16;2063803;28;42635;-82
2023/11/30 02:06:45;;;;;;;22.08;10.45;;;;;;;-146.25;100.00;52656.13;2071473;28;37659;-81
2023/11/30 02:07:47;;;;;;;24.02;10.50;;;;;;;-146.25;100.00;52637.88;2072606;28;20082;-81
2023/11/30 02:08:51;;;;;;;18.85;9.50;;;;;;;-146.25;100.00;52704.78;2079990;28;20038;-80
2023/11/30 02:09:53;;;;;;;20.80;9.50;;;;;;;-146.25;100.00;52676.41;2071247;28;36491;-81
2023/11/30 02:10:57;;;;;;;16.65;8.95;;;;;;;-146.25;100.00;52643.97;2071362;28;37132;-81
2023/11/30 02:11:59;;;;;;;20.70;10.52;;;;;;;-146.25;100.00;52660.19;2064318;28;34990;-82
2023/11/30 02:13:01;;;;;;;24.65;11.30;;;;;;;-146.25;100.00;52648.00;2063717;28;20113;-82
2023/11/30 02:14:05;;;;;;;20.25;10.18;;;;;;;-146.25;100.00;52660.19;2063541;28;31449;-82
2023/11/30 02:15:07;;;;;;;27.73;11.35;;;;;;;-146.25;100.00;52648.00;2071189;28;37910;-81
2023/11/30 02:16:10;;;;;;;19.33;9.18;;;;;;;-146.25;100.00;52664.22;2071642;28;27037;-82
2023/11/30 02:17:11;;;;;;;29.17;11.13;;;;;;;-146.25;100.00;52654.09;2063758;28;20804;-82
2023/11/30 02:18:13;;;;;;;29.15;12.10;;;;;;;-146.25;100.00;52635.84;2063750;28;20177;-81
2023/11/30 02:19:15;;;;;;;27.00;10.95;;;;;;;-146.25;100.00;52605.44;2063170;28;27340;-82
2023/11/30 02:20:18;;;;;;;27.45;10.27;;;;;;;-146.25;100.00;52656.13;2063700;28;20054;-82
2023/11/30 02:21:19;;;;;;;23.20;10.93;;;;;;;-146.25;100.00;52656.13;2071531;28;36653;-82
2023/11/30 02:22:21;;;;;;;22.92;11.65;;;;;;;-146.25;100.00;52643.97;2071083;28;32348;-82
2023/11/30 02:23:23;;;;;;;22.13;9.77;;;;;;;-146.25;100.00;52615.56;2071962;28;20101;-81
2023/11/30 02:24:24;;;;;;;30.23;12.32;;;;;;;-146.25;100.00;52645.97;2062266;28;40600;-82
2023/11/30 02:25:30;;;;;;;28.15;11.90;;;;;;;-146.25;100.00;52666.25;2064262;28;20051;-82
2023/11/30 02:26:32;;;;;;;26.30;11.40;;;;;;;-146.25;100.00;52652.06;2071756;28;20091;-82
2023/11/30 02:27:34;;;;;;;21.92;9.95;;;;;;;-146.25;100.00;52674.38;2071359;28;37429;-82
2023/11/30 02:28:36;;;;;;;30.08;12.00;;;;;;;-146.25;100.00;52611.50;2071039;28;30372;-81
2023/11/30 02:29:38;;;;;;;35.47;13.05;;;;;;;-146.25;100.00;52643.97;2071850;28;20093;-81
2023/11/30 02:30:40;;;;;;;37.70;12.30;;;;;;;-146.25;100.00;52627.75;2071186;28;41695;-82
2023/11/30 02:31:43;;;;;;;33.10;13.30;;;;;;;-146.25;100.00;52623.69;2071769;28;20035;-79
2023/11/30 02:32:44;;;;;;;27.88;11.68;;;;;;;-146.25;100.00;52615.56;2063054;28;37206;-82
2023/11/30 02:33:46;;;;;;;32.67;12.65;;;;;;;-146.25;100.00;52658.16;2063117;28;36488;-82
2023/11/30 02:34:48;;;;;;;27.00;11.50;;;;;;;-146.25;100.00;52650.03;2070507;28;37599;-81
2023/11/30 02:35:49;;;;;;;34.15;14.13;;;;;;;-146.25;100.00;52633.81;2072097;28;20100;-82
2023/11/30 02:36:51;;;;;;;31.60;13.82;;;;;;;-146.25;100.00;52648.00;2063598;28;39648;-82
2023/11/30 02:37:53;;;;;;;35.35;13.30;;;;;;;-146.25;100.00;52627.75;2064063;28;34878;-80
2023/11/30 02:38:55;;;;;;;22.90;10.93;;;;;;;-146.25;100.00;52678.44;2071201;28;30121;-81
2023/11/30 02:39:56;;;;;;;28.58;12.55;;;;;;;-146.25;100.00;52645.97;2070861;28;41481;-82
2023/11/30 02:40:58;;;;;;;29.35;12.27;;;;;;;-146.25;100.00;52658.16;2071219;28;34893;-81
2023/11/30 02:42:00;;;;;;;35.22;12.35;;;;;;;-146.25;100.00;52603.41;2064684;28;20105;-81
2023/11/30 02:43:01;;;;;;;44.47;13.43;;;;;;;-146.25;100.00;52643.97;2063068;28;41026;-81
2023/11/30 02:44:04;;;;;;;28.85;11.68;;;;;;;-146.25;100.00;52643.97;2072296;28;20093;-82
2023/11/30 02:45:07;;;;;;;40.25;14.52;;;;;;;-146.25;100.00;52609.50;2071111;28;28269;-82
2023/11/30 02:46:09;;;;;;;34.08;12.98;;;;;;;-146.25;100.00;52633.81;2064773;28;20051;-82
2023/11/30 02:47:10;;;;;;;43.83;13.05;;;;;;;-146.25;100.00;52664.22;2063544;28;38412;-81
2023/11/30 02:48:14;;;;;;;60.47;13.55;;;;;;;-146.25;100.00;52656.13;2064534;28;35897;-81
2023/11/30 02:49:18;;;;;;;48.28;12.63;;;;;;;-146.25;100.00;52629.75;2063850;28;20157;-81
2023/11/30 02:50:19;;;;;;;75.65;13.52;;;;;;;-146.25;100.00;52593.25;2071900;28;20046;-81
2023/11/30 02:51:21;;;;;;;55.78;12.50;;;;;;;-146.25;100.00;52635.84;2071462;28;37019;-81
2023/11/30 02:52:23;;;;;;;48.40;12.75;;;;;;;-146.25;100.00;52672.34;2071530;28;34374;-82
2023/11/30 02:53:25;;;;;;;63.70;12.90;;;;;;;-146.25;100.00;52639.91;2071638;28;20046;-81
2023/11/30 02:54:26;;;;;;;91.97;13.38;;;;;;;-146.25;100.00;52660.19;2063687;28;33562;-81
2023/11/30 02:55:28;;;;;;;48.55;12.38;;;;;;;-146.25;100.00;52648.00;2062818;28;37029;-81
2023/11/30 02:56:30;;;;;;;50.75;12.48;;;;;;;-146.25;100.00;52658.16;2063983;28;20030;-81
2023/11/30 02:57:31;;;;;;;41.42;11.32;;;;;;;-146.25;100.00;52656.13;2063161;28;40462;-81
2023/11/30 02:58:33;;;;;;;47.83;12.23;;;;;;;-146.25;100.00;52627.75;2071396;28;35536;-80
2023/11/30 02:59:35;;;;;;;52.20;12.40;;;;;;;-146.25;100.00;52694.66;2071483;28;20069;-81
2023/11/30 03:00:37;;;;;;;84.93;14.05;;;;;;;-146.25;100.00;52656.13;2071267;28;35819;-81
2023/11/30 03:01:47;;;;;;;110.85;13.05;;;;;;;-146.25;100.00;52672.34;2071006;28;35556;-81
2023/11/30 03:02:51;;;;;;;111.20;14.05;;;;;;;-146.25;100.00;52633.81;2064474;28;21968;-81
2023/11/30 03:03:53;;;;;;;126.55;13.25;;;;;;;-146.25;100.00;52627.75;2063803;28;28082;-80
2023/11/30 03:04:55;;;;;;;62.17;11.80;;;;;;;-146.25;100.00;52625.72;2071537;28;20033;-80
2023/11/30 03:05:57;;;;;;;35.58;10.63;;;;;;;-146.25;100.00;52650.03;2071256;28;20050;-81
2023/11/30 03:06:59;;;;;;;54.70;12.10;;;;;;;-146.25;100.00;52668.28;2063989;28;38490;-80
2023/11/30 03:08:01;;;;;;;99.22;13.27;;;;;;;-146.25;100.00;52652.06;2071566;28;20840;-80
2023/11/30 03:09:03;;;;;;;51.75;12.13;;;;;;;-146.25;100.00;52660.19;2070736;28;36949;-80
2023/11/30 03:10:05;;;;;;;54.45;11.27;;;;;;;-146.25;100.00;52690.59;2070815;28;42594;-81
2023/11/30 03:11:07;;;;;;;49.28;11.50;;;;;;;-146.25;100.00;52645.97;2070927;28;35941;-81
2023/11/30 03:12:09;;;;;;;32.00;10.20;;;;;;;-146.25;100.00;52648.00;2055160;28;20547;-80
2023/11/30 03:13:12;;;;;;;48.17;12.43;;;;;;;-146.25;100.00;52668.28;2054839;28;37234;-81
2023/11/30 03:14:14;;;;;;;29.83;10.80;;;;;;;-146.25;100.00;52666.25;2054843;28;37571;-80
2023/11/30 03:15:18;;;;;;;102.28;11.73;;;;;;;-146.25;100.00;52660.19;2054955;28;41221;-80
2023/11/30 03:16:24;;;;;;;47.13;12.38;;;;;;;-146.25;100.00;52627.75;2063309;28;20061;-80
2023/11/30 03:17:26;;;;;;;105.60;13.52;;;;;;;-146.25;100.00;52639.91;2055053;28;35026;-80
2023/11/30 03:18:28;;;;;;;52.97;11.88;;;;;;;-146.25;100.00;52623.69;2054352;28;36376;-81
2023/11/30 03:19:29;;;;;;;111.97;14.10;;;;;;;-146.25;100.00;52670.31;2055667;28;36047;-81
2023/11/30 03:20:35;;;;;;;79.72;13.25;;;;;;;-146.25;100.00;52692.63;2055568;28;24536;-81
2023/11/30 03:21:37;;;;;;;110.32;12.70;;;;;;;-146.25;100.00;52607.47;2056325;28;20922;-81
2023/11/30 03:22:39;;;;;;;65.82;10.63;;;;;;;-146.25;100.00;52684.50;2063406;28;20046;-81
2023/11/30 03:23:41;;;;;;;69.50;10.10;;;;;;;-146.25;100.00;52611.50;2055094;28;31352;-81
2023/11/30 03:24:42;;;;;;;86.10;12.50;;;;;;;-146.25;100.00;52625.72;2054078;28;35235;-81
2023/11/30 03:25:45;;;;;;;82.32;12.48;;;;;;;-146.25;100.00;52684.50;2055677;28;35211;-81
2023/11/30 03:26:47;;;;;;;96.93;12.13;;;;;;;-146.25;100.00;52652.06;2062889;28;20918;-81
2023/11/30 03:27:49;;;;;;;61.33;14.43;;;;;;;-146.25;100.00;52672.34;2055131;28;34785;-81
2023/11/30 03:28:51;;;;;;;84.97;11.45;;;;;;;-146.25;100.00;52672.34;2054937;28;36812;-81
2023/11/30 03:29:52;;;;;;;86.78;10.95;;;;;;;-146.25;100.00;52652.06;2063381;28;20043;-81
2023/11/30 03:30:54;;;;;;;46.35;10.93;;;;;;;-146.25;100.00;52654.09;2062691;28;38068;-79
2023/11/30 03:31:58;;;;;;;61.05;10.88;;;;;;;-146.25;100.00;52654.09;2063407;28;39068;-81
2023/11/30 03:33:00;;;;;;;58.22;11.38;;;;;;;-146.25;100.00;52617.59;2054942;28;36077;-80
2023/11/30 03:34:02;;;;;;;95.10;11.82;;;;;;;-146.25;100.00;52637.88;2055510;28;34612;-79
2023/11/30 03:35:05;;;;;;;59.10;11.18;;;;;;;-146.25;100.00;52648.00;2054210;28;40462;-80
2023/11/30 03:36:08;;;;;;;75.78;11.02;;;;;;;-146.25;100.00;52670.31;2054985;28;20054;-80
2023/11/30 03:37:12;;;;;;;62.35;10.63;;;;;;;-146.25;100.00;52617.59;2062550;28;39750;-81
2023/11/30 03:38:14;;;;;;;83.32;11.40;;;;;;;-146.25;100.00;52643.97;2062898;28;34306;-81
2023/11/30 03:39:16;;;;;;;61.15;9.52;;;;;;;-146.25;100.00;52641.94;2062707;28;20482;-81
2023/11/30 03:40:17;;;;;;;71.25;9.60;;;;;;;-146.25;100.00;52662.22;2055319;28;40502;-81
2023/11/30 03:41:20;;;;;;;97.20;10.70;;;;;;;-146.25;100.00;52639.91;2056911;28;32423;-81
2023/11/30 03:42:22;;;;;;;49.00;9.15;;;;;;;-146.25;100.00;52619.63;2063379;28;30751;-80
2023/11/30 03:43:24;;;;;;;62.65;10.00;;;;;;;-146.25;100.00;52627.75;2063171;28;42104;-80
2023/11/30 03:44:26;;;;;;;44.67;9.85;;;;;;;-146.25;100.00;52650.03;2063787;28;31584;-81
2023/11/30 03:45:31;;;;;;;121.28;11.35;;;;;;;-146.25;100.00;52603.41;2070341;28;38333;-81
2023/11/30 03:46:38;;;;;;;98.03;11.63;;;;;;;-146.25;100.00;52676.41;2071819;28;20038;-80
2023/11/30 03:47:40;;;;;;;76.82;9.02;;;;;;;-146.25;100.00;52696.69;2071179;28;20895;-81
2023/11/30 03:48:41;;;;;;;122.07;12.20;;;;;;;-146.25;100.00;52648.00;2070763;28;45013;-81
2023/11/30 03:49:43;;;;;;;83.57;11.48;;;;;;;-146.25;100.00;52629.75;2063160;28;33300;-81
2023/11/30 03:50:45;;;;;;;58.22;10.13;;;;;;;-146.25;100.00;52674.38;2071473;28;20161;-81
2023/11/30 03:51:47;;;;;;;87.20;10.55;;;;;;;-146.25;100.00;52627.75;2062641;28;39431;-80
2023/11/30 03:52:49;;;;;;;125.38;11.35;;;;;;;-146.25;100.00;52639.91;2063035;28;38404;-81
2023/11/30 03:53:50;;;;;;;163.30;12.07;;;;;;;-146.25;100.00;52597.31;2070828;28;32238;-80
2023/11/30 03:54:52;;;;;;;112.38;10.88;;;;;;;-146.25;100.00;52692.63;2063622;28;34722;-80
2023/11/30 03:55:54;;;;;;;147.75;11.63;;;;;;;-146.25;100.00;52650.03;2070708;28;31487;-79
2023/11/30 03:56:58;;;;;;;67.40;9.45;;;;;;;-146.25;100.00;52629.75;2063302;28;20173;-80
2023/11/30 03:58:01;;;;;;;88.55;10.38;;;;;;;-146.25;100.00;52635.84;2063068;28;20938;-81
2023/11/30 03:59:03;;;;;;;63.35;10.20;;;;;;;-146.25;100.00;52660.19;2062911;28;36846;-80
2023/11/30 04:00:07;;;;;;;88.78;11.57;;;;;;;-146.25;100.00;52615.56;2062788;28;39052;-80
2023/11/30 04:01:09;;;;;;;69.00;10.43;;;;;;;-146.25;100.00;52645.97;2063435;28;36706;-80
2023/11/30 04:02:11;;;;;;;90.35;10.77;;;;;;;-146.25;100.00;52643.97;2070808;28;20262;-80
2023/11/30 04:03:13;;;;;;;136.30;14.40;;;;;;;-146.25;100.00;52676.41;2062650;28;35245;-80
2023/11/30 04:04:14;;;;;;;200.45;12.05;;;;;;;-146.25;100.00;52650.03;2062734;28;31515;-79
2023/11/30 04:05:16;;;;;;;150.05;12.10;;;;;;;-146.25;100.00;52688.56;2063490;28;34561;-80
2023/11/30 04:06:23;;;;;;;191.98;12.35;;;;;;;-146.25;100.00;52648.00;2070546;28;38212;-80
2023/11/30 04:07:29;;;;;;;95.90;11.95;;;;;;;-146.25;100.00;52648.00;2063445;28;20048;-80
2023/11/30 04:08:33;;;;;;;133.32;11.07;;;;;;;-146.25;100.00;52674.38;2062588;28;40870;-79
2023/11/30 04:09:42;;;;;;;89.65;10.15;;;;;;;-146.25;100.00;52652.06;2070487;28;35772;-80
2023/11/30 04:10:47;;;;;;;136.30;12.07;;;;;;;-146.25;100.00;52621.66;2071090;28;38319;-80
2023/11/30 04:11:51;;;;;;;39.80;9.52;;;;;;;-146.25;100.00;52676.41;2062275;28;43035;-79
2023/11/30 04:12:54;;;;;;;103.80;12.38;;;;;;;-146.25;100.00;52641.94;2063820;28;20054;-80
2023/11/30 04:14:05;;;;;;;47.63;10.27;;;;;;;-146.25;100.00;52619.63;2071046;28;20058;-79
2023/11/30 04:15:07;;;;;;;62.17;10.38;;;;;;;-146.25;100.00;52660.19;2070472;28;30777;-80
2023/11/30 04:16:09;;;;;;;75.85;10.90;;;;;;;-146.25;100.00;52623.69;2063021;28;20866;-80
2023/11/30 04:17:11;;;;;;;84.47;12.13;;;;;;;-146.25;100.00;52652.06;2063129;28;33071;-80
2023/11/30 04:18:13;;;;;;;49.95;10.23;;;;;;;-146.25;100.00;52615.56;2071223;28;20050;-79
2023/11/30 04:19:14;;;;;;;83.63;11.05;;;;;;;-146.25;100.00;52692.63;2070450;28;42460;-80
2023/11/30 04:20:16;;;;;;;102.70;11.75;;;;;;;-146.25;100.00;52666.25;2070514;28;39741;-79
2023/11/30 04:21:20;;;;;;;60.25;11.32;;;;;;;-146.25;100.00;52668.28;2063085;28;28324;-80
2023/11/30 04:22:23;;;;;;;71.93;11.63;;;;;;;-146.25;100.00;52645.97;2063733;28;20819;-78
2023/11/30 04:23:24;;;;;;;57.13;11.23;;;;;;;-146.25;100.00;52623.69;2063205;28;37730;-80
2023/11/30 04:24:26;;;;;;;62.97;11.35;;;;;;;-146.25;100.00;52645.97;2070919;28;20129;-79
2023/11/30 04:25:28;;;;;;;47.10;11.30;;;;;;;-146.25;100.00;52652.06;2062071;28;36151;-80
2023/11/30 04:26:31;;;;;;;64.88;11.25;;;;;;;-146.25;100.00;52627.75;2063245;28;20062;-79
2023/11/30 04:27:33;;;;;;;76.68;10.32;;;;;;;-146.25;100.00;52688.56;2062640;28;28403;-80
2023/11/30 04:28:34;;;;;;;133.88;11.55;;;;;;;-146.25;100.00;52662.22;2054528;28;36512;-79
2023/11/30 04:29:36;;;;;;;178.15;14.48;;;;;;;-146.25;100.00;52617.59;2063057;28;20093;-79
2023/11/30 04:30:38;;;;;;;116.57;12.93;;;;;;;-146.25;100.00;52652.06;2063170;28;20824;-79
2023/11/30 04:31:40;;;;;;;96.05;13.32;;;;;;;-146.25;100.00;52674.38;2062275;28;41458;-80
2023/11/30 04:32:41;;;;;;;88.50;11.73;;;;;;;-146.25;100.00;52650.03;2070110;28;43134;-79
2023/11/30 04:33:43;;;;;;;141.13;12.82;;;;;;;-146.25;100.00;52631.78;2070351;28;35867;-79
2023/11/30 04:34:45;;;;;;;97.32;10.50;;;;;;;-146.25;100.00;52704.78;2070989;28;22655;-80
2023/11/30 04:35:48;;;;;;;93.90;10.93;;;;;;;-146.25;100.00;52648.00;2070765;28;20116;-79
2023/11/30 04:36:49;;;;;;;138.80;11.60;;;;;;;-146.25;100.00;52676.41;2070708;28;34195;-79
2023/11/30 04:37:51;;;;;;;43.05;9.80;;;;;;;-146.25;100.00;52672.34;2063127;28;39278;-80